Time,TemperatureF,DewpointF,PressureIn,WindDirection,WindDirectionDegrees,WindSpeedMPH,WindSpeedGustMPH,Humidity,HourlyPrecipIn,Conditions,Clouds,dailyrainin,SoftwareType,DateUTC
2013-04-18 00:02:00,76.7,66.6,30.03,East,80,8.0,8.0,71,0.00,,,0.00,Wunderground v.1.15,2013-04-18 04:02:00,
2013-04-18 00:04:00,76.6,66.5,30.03,ENE,77,8.0,8.0,71,0.00,,,0.00,Wunderground v.1.15,2013-04-18 04:04:00,
2013-04-18 00:10:00,76.5,66.4,30.03,East,80,8.0,8.0,71,0.00,,,0.00,Wunderground v.1.15,2013-04-18 04:10:00,
2013-04-18 00:14:00,76.5,66.8,30.03,East,88,8.0,15.0,72,0.00,,,0.00,Wunderground v.1.15,2013-04-18 04:14:00,
2013-04-18 00:20:00,76.4,66.7,30.03,ENE,71,9.0,9.0,72,0.00,,,0.00,Wunderground v.1.15,2013-04-18 04:20:00,
2013-04-18 00:26:00,76.4,66.7,30.03,East,86,8.0,10.0,72,0.00,,,0.00,Wunderground v.1.15,2013-04-18 04:26:00,
2013-04-18 00:32:00,76.4,67.1,30.03,East,90,7.0,8.0,73,0.00,,,0.00,Wunderground v.1.15,2013-04-18 04:32:00,
2013-04-18 00:38:00,76.4,67.1,30.03,East,93,7.0,8.0,73,0.00,,,0.00,Wunderground v.1.15,2013-04-18 04:38:00,
2013-04-18 00:44:00,76.4,67.1,30.03,East,92,7.0,10.0,73,0.00,,,0.00,Wunderground v.1.15,2013-04-18 04:44:00,
2013-04-18 00:46:00,76.4,67.1,30.03,East,85,6.0,10.0,73,0.00,,,0.00,Wunderground v.1.15,2013-04-18 04:46:00,
2013-04-18 00:52:00,76.3,67.0,30.03,East,80,7.0,8.0,73,0.00,,,0.00,Wunderground v.1.15,2013-04-18 04:52:00,
2013-04-18 00:58:00,76.3,67.4,30.03,East,94,6.0,8.0,74,0.00,,,0.00,Wunderground v.1.15,2013-04-18 04:58:00,
2013-04-18 01:04:00,76.2,67.3,30.03,East,98,6.0,7.0,74,0.00,,,0.00,Wunderground v.1.15,2013-04-18 05:04:00,
2013-04-18 01:10:00,76.1,67.2,30.02,East,94,6.0,6.0,74,0.00,,,0.00,Wunderground v.1.15,2013-04-18 05:10:00,
2013-04-18 01:16:00,76.1,67.2,30.02,East,87,7.0,10.0,74,0.00,,,0.00,Wunderground v.1.15,2013-04-18 05:16:00,
2013-04-18 01:22:00,76.1,67.2,30.01,East,92,7.0,7.0,74,0.00,,,0.00,Wunderground v.1.15,2013-04-18 05:22:00,
2013-04-18 01:28:00,76.0,67.1,30.01,East,84,7.0,8.0,74,0.00,,,0.00,Wunderground v.1.15,2013-04-18 05:28:00,
2013-04-18 01:34:00,76.0,67.1,30.01,East,96,7.0,10.0,74,0.00,,,0.00,Wunderground v.1.15,2013-04-18 05:34:00,
2013-04-18 01:40:00,75.9,67.0,30.00,East,99,7.0,7.0,74,0.00,,,0.00,Wunderground v.1.15,2013-04-18 05:40:00,
2013-04-18 01:46:00,75.9,67.0,30.01,East,91,7.0,9.0,74,0.00,,,0.00,Wunderground v.1.15,2013-04-18 05:46:00,
2013-04-18 01:52:00,75.8,67.3,30.00,East,80,8.0,8.0,75,0.00,,,0.00,Wunderground v.1.15,2013-04-18 05:52:00,
2013-04-18 01:58:00,75.8,67.3,30.00,East,95,7.0,8.0,75,0.00,,,0.00,Wunderground v.1.15,2013-04-18 05:58:00,
2013-04-18 02:04:00,75.7,67.2,30.00,East,88,5.0,10.0,75,0.00,,,0.00,Wunderground v.1.15,2013-04-18 06:04:00,
2013-04-18 02:10:00,75.6,67.1,30.00,ENE,77,6.0,7.0,75,0.00,,,0.00,Wunderground v.1.15,2013-04-18 06:10:00,
2013-04-18 02:16:00,75.5,67.0,30.00,East,81,6.0,8.0,75,0.00,,,0.00,Wunderground v.1.15,2013-04-18 06:16:00,
2013-04-18 02:22:00,75.4,66.9,29.99,East,82,6.0,6.0,75,0.00,,,0.00,Wunderground v.1.15,2013-04-18 06:22:00,
2013-04-18 02:28:00,75.4,66.9,29.99,East,80,7.0,11.0,75,0.00,,,0.00,Wunderground v.1.15,2013-04-18 06:28:00,
2013-04-18 02:34:00,75.4,67.3,29.99,ENE,74,6.0,7.0,76,0.00,,,0.00,Wunderground v.1.15,2013-04-18 06:34:00,
2013-04-18 02:40:00,75.3,67.2,29.99,East,84,7.0,11.0,76,0.00,,,0.00,Wunderground v.1.15,2013-04-18 06:40:00,
2013-04-18 02:46:00,75.3,67.2,29.99,East,94,7.0,11.0,76,0.00,,,0.00,Wunderground v.1.15,2013-04-18 06:46:00,
2013-04-18 02:52:00,75.3,67.2,29.99,East,90,7.0,11.0,76,0.00,,,0.00,Wunderground v.1.15,2013-04-18 06:52:00,
2013-04-18 02:58:00,75.2,67.1,29.98,ESE,102,7.0,11.0,76,0.00,,,0.00,Wunderground v.1.15,2013-04-18 06:58:00,
2013-04-18 03:04:00,75.1,67.0,29.98,ENE,73,7.0,8.0,76,0.00,,,0.00,Wunderground v.1.15,2013-04-18 07:04:00,
2013-04-18 03:10:00,75.1,67.0,29.98,ENE,67,6.0,6.0,76,0.00,,,0.00,Wunderground v.1.15,2013-04-18 07:10:00,
2013-04-18 03:16:00,75.0,66.9,29.98,ENE,67,6.0,6.0,76,0.00,,,0.00,Wunderground v.1.15,2013-04-18 07:16:00,
2013-04-18 03:22:00,74.9,67.2,29.98,East,90,6.0,6.0,77,0.00,,,0.00,Wunderground v.1.15,2013-04-18 07:22:00,
2013-04-18 03:28:00,74.9,67.2,29.98,ENE,67,6.0,12.0,77,0.00,,,0.00,Wunderground v.1.15,2013-04-18 07:28:00,
2013-04-18 03:34:00,74.9,67.2,29.98,ENE,76,6.0,6.0,77,0.00,,,0.00,Wunderground v.1.15,2013-04-18 07:34:00,
2013-04-18 03:40:00,74.8,67.1,29.98,East,80,6.0,6.0,77,0.00,,,0.00,Wunderground v.1.15,2013-04-18 07:40:00,
2013-04-18 03:46:00,74.8,67.1,29.98,East,86,6.0,6.0,77,0.00,,,0.00,Wunderground v.1.15,2013-04-18 07:46:00,
2013-04-18 03:52:00,74.8,67.1,29.98,East,88,5.0,7.0,77,0.00,,,0.00,Wunderground v.1.15,2013-04-18 07:52:00,
2013-04-18 03:58:00,74.8,67.1,29.98,East,87,5.0,7.0,77,0.00,,,0.00,Wunderground v.1.15,2013-04-18 07:58:00,
2013-04-18 04:04:00,74.7,67.0,29.98,ENE,76,5.0,7.0,77,0.00,,,0.00,Wunderground v.1.15,2013-04-18 08:04:00,
2013-04-18 04:10:00,74.7,67.0,29.98,ENE,76,5.0,5.0,77,0.00,,,0.00,Wunderground v.1.15,2013-04-18 08:10:00,
2013-04-18 04:16:00,74.7,67.0,29.98,ENE,77,5.0,7.0,77,0.00,,,0.00,Wunderground v.1.15,2013-04-18 08:16:00,
2013-04-18 04:22:00,74.6,66.9,29.98,ENE,75,5.0,5.0,77,0.00,,,0.00,Wunderground v.1.15,2013-04-18 08:22:00,
2013-04-18 04:28:00,74.6,66.9,29.98,East,80,4.0,5.0,77,0.00,,,0.00,Wunderground v.1.15,2013-04-18 08:28:00,
2013-04-18 04:34:00,74.5,66.8,29.98,East,80,4.0,4.0,77,0.00,,,0.00,Wunderground v.1.15,2013-04-18 08:34:00,
2013-04-18 04:40:00,74.4,66.7,29.98,East,82,4.0,7.0,77,0.00,,,0.00,Wunderground v.1.15,2013-04-18 08:40:00,
2013-04-18 04:46:00,74.3,66.6,29.98,East,87,4.0,7.0,77,0.00,,,0.00,Wunderground v.1.15,2013-04-18 08:46:00,
2013-04-18 04:52:00,74.2,66.5,29.98,East,85,4.0,5.0,77,0.00,,,0.00,Wunderground v.1.15,2013-04-18 08:52:00,
2013-04-18 04:58:00,74.1,66.4,29.98,East,86,4.0,7.0,77,0.00,,,0.00,Wunderground v.1.15,2013-04-18 08:58:00,
2013-04-18 05:04:00,74.1,66.4,29.98,East,86,3.0,3.0,77,0.00,,,0.00,Wunderground v.1.15,2013-04-18 09:04:00,
2013-04-18 05:10:00,74.1,66.8,29.98,East,86,2.0,5.0,78,0.00,,,0.00,Wunderground v.1.15,2013-04-18 09:10:00,
2013-04-18 05:16:00,74.1,66.8,29.98,East,85,2.0,5.0,78,0.00,,,0.00,Wunderground v.1.15,2013-04-18 09:16:00,
2013-04-18 05:22:00,74.1,66.8,29.98,East,85,2.0,2.0,78,0.00,,,0.00,Wunderground v.1.15,2013-04-18 09:22:00,
2013-04-18 05:28:00,74.2,66.9,29.98,East,85,2.0,3.0,78,0.00,,,0.00,Wunderground v.1.15,2013-04-18 09:28:00,
2013-04-18 05:34:00,74.2,66.9,29.99,East,84,3.0,4.0,78,0.00,,,0.00,Wunderground v.1.15,2013-04-18 09:34:00,
2013-04-18 05:40:00,74.3,67.0,29.99,East,82,3.0,3.0,78,0.00,,,0.00,Wunderground v.1.15,2013-04-18 09:40:00,
2013-04-18 05:46:00,74.3,67.0,29.99,East,82,3.0,4.0,78,0.00,,,0.00,Wunderground v.1.15,2013-04-18 09:46:00,
2013-04-18 05:52:00,74.4,67.1,29.99,East,82,3.0,4.0,78,0.00,,,0.00,Wunderground v.1.15,2013-04-18 09:52:00,
2013-04-18 05:58:00,74.4,67.1,29.99,East,82,3.0,4.0,78,0.00,,,0.00,Wunderground v.1.15,2013-04-18 09:58:00,
2013-04-18 06:04:00,74.4,67.1,29.99,East,82,3.0,4.0,78,0.00,,,0.00,Wunderground v.1.15,2013-04-18 10:04:00,
2013-04-18 06:10:00,74.3,67.0,29.99,East,82,3.0,3.0,78,0.00,,,0.00,Wunderground v.1.15,2013-04-18 10:10:00,
2013-04-18 06:16:00,74.2,66.9,29.99,East,81,3.0,4.0,78,0.00,,,0.00,Wunderground v.1.15,2013-04-18 10:16:00,
2013-04-18 06:22:00,74.0,66.7,29.99,East,81,3.0,4.0,78,0.00,,,0.00,Wunderground v.1.15,2013-04-18 10:22:00,
2013-04-18 06:28:00,74.0,66.7,29.99,East,81,2.0,4.0,78,0.00,,,0.00,Wunderground v.1.15,2013-04-18 10:28:00,
2013-04-18 06:34:00,73.9,66.6,29.99,East,81,3.0,3.0,78,0.00,,,0.00,Wunderground v.1.15,2013-04-18 10:34:00,
2013-04-18 06:40:00,73.8,66.5,30.00,East,81,3.0,3.0,78,0.00,,,0.00,Wunderground v.1.15,2013-04-18 10:40:00,
2013-04-18 06:46:00,73.7,66.4,30.00,East,81,3.0,5.0,78,0.00,,,0.00,Wunderground v.1.15,2013-04-18 10:46:00,
2013-04-18 06:52:00,73.6,66.3,30.00,East,81,3.0,4.0,78,0.00,,,0.00,Wunderground v.1.15,2013-04-18 10:52:00,
2013-04-18 06:58:00,73.5,66.2,30.00,East,81,3.0,4.0,78,0.00,,,0.00,Wunderground v.1.15,2013-04-18 10:58:00,
2013-04-18 07:04:00,73.4,66.1,30.00,East,81,2.0,3.0,78,0.00,,,0.00,Wunderground v.1.15,2013-04-18 11:04:00,
2013-04-18 07:10:00,73.4,66.1,30.00,East,81,2.0,5.0,78,0.00,,,0.00,Wunderground v.1.15,2013-04-18 11:10:00,
2013-04-18 07:16:00,73.3,66.0,30.01,East,81,3.0,5.0,78,0.00,,,0.00,Wunderground v.1.15,2013-04-18 11:16:00,
2013-04-18 07:22:00,73.2,66.3,30.01,East,80,3.0,3.0,79,0.00,,,0.00,Wunderground v.1.15,2013-04-18 11:22:00,
2013-04-18 07:28:00,73.2,66.3,30.01,East,80,3.0,5.0,79,0.00,,,0.00,Wunderground v.1.15,2013-04-18 11:28:00,
2013-04-18 07:34:00,73.3,66.4,30.01,ENE,77,4.0,4.0,79,0.00,,,0.00,Wunderground v.1.15,2013-04-18 11:34:00,
2013-04-18 07:40:00,73.3,66.4,30.01,ENE,77,3.0,5.0,79,0.00,,,0.00,Wunderground v.1.15,2013-04-18 11:40:00,
2013-04-18 07:46:00,73.3,66.4,30.01,ENE,76,3.0,5.0,79,0.00,,,0.00,Wunderground v.1.15,2013-04-18 11:46:00,
2013-04-18 07:52:00,73.3,66.4,30.01,ENE,76,3.0,4.0,79,0.00,,,0.00,Wunderground v.1.15,2013-04-18 11:52:00,
2013-04-18 07:58:00,73.5,66.6,30.02,ENE,74,4.0,7.0,79,0.00,,,0.00,Wunderground v.1.15,2013-04-18 11:58:00,
2013-04-18 08:04:00,73.6,66.7,30.02,ENE,71,4.0,6.0,79,0.00,,,0.00,Wunderground v.1.15,2013-04-18 12:04:00,
2013-04-18 08:10:00,73.8,66.9,30.02,ENE,69,4.0,5.0,79,0.00,,,0.00,Wunderground v.1.15,2013-04-18 12:10:00,
2013-04-18 08:16:00,74.0,67.1,30.02,ENE,63,5.0,6.0,79,0.00,,,0.00,Wunderground v.1.15,2013-04-18 12:16:00,
2013-04-18 08:22:00,74.2,66.9,30.02,ENE,65,4.0,6.0,78,0.00,,,0.00,Wunderground v.1.15,2013-04-18 12:22:00,
2013-04-18 08:28:00,74.4,67.1,30.02,ENE,74,4.0,6.0,78,0.00,,,0.00,Wunderground v.1.15,2013-04-18 12:28:00,
2013-04-18 08:34:00,74.7,67.4,30.02,ENE,78,4.0,4.0,78,0.00,,,0.00,Wunderground v.1.15,2013-04-18 12:34:00,
2013-04-18 08:40:00,74.8,67.5,30.02,ENE,72,5.0,5.0,78,0.00,,,0.00,Wunderground v.1.15,2013-04-18 12:40:00,
2013-04-18 08:48:00,75.4,68.1,30.01,ENE,77,6.0,6.0,78,0.00,,,0.00,Wunderground v.1.15,2013-04-18 12:48:00,
2013-04-18 08:54:00,75.9,68.5,30.02,ENE,67,6.0,9.0,78,0.00,,,0.00,Wunderground v.1.15,2013-04-18 12:54:00,
2013-04-18 09:00:00,76.7,69.3,30.01,ESE,103,5.0,8.0,78,0.00,,,0.00,Wunderground v.1.15,2013-04-18 13:00:00,
2013-04-18 09:06:00,77.2,69.4,30.02,East,94,7.0,11.0,77,0.00,,,0.00,Wunderground v.1.15,2013-04-18 13:06:00,
2013-04-18 09:12:00,77.3,69.5,30.02,East,91,7.0,8.0,77,0.00,,,0.00,Wunderground v.1.15,2013-04-18 13:12:00,
2013-04-18 09:18:00,77.7,69.9,30.02,ENE,76,6.0,8.0,77,0.00,,,0.00,Wunderground v.1.15,2013-04-18 13:18:00,
2013-04-18 09:24:00,78.2,70.0,30.02,East,89,7.0,10.0,76,0.00,,,0.00,Wunderground v.1.15,2013-04-18 13:24:00,
2013-04-18 09:30:00,78.3,70.1,30.02,East,100,8.0,9.0,76,0.00,,,0.00,Wunderground v.1.15,2013-04-18 13:30:00,
2013-04-18 09:36:00,78.5,70.3,30.02,East,98,8.0,9.0,76,0.00,,,0.00,Wunderground v.1.15,2013-04-18 13:36:00,
2013-04-18 09:42:00,78.6,70.4,30.02,ESE,107,8.0,11.0,76,0.00,,,0.00,Wunderground v.1.15,2013-04-18 13:42:00,
2013-04-18 09:48:00,78.4,70.6,30.02,ESE,105,9.0,12.0,77,0.00,,,0.00,Wunderground v.1.15,2013-04-18 13:48:00,
2013-04-18 09:54:00,79.1,70.9,30.02,East,101,8.0,9.0,76,0.00,,,0.00,Wunderground v.1.15,2013-04-18 13:54:00,
2013-04-18 10:00:00,79.3,71.1,30.02,East,90,8.0,8.0,76,0.00,,,0.00,Wunderground v.1.15,2013-04-18 14:00:00,
2013-04-18 10:06:00,79.4,71.2,30.02,SE,126,9.0,11.0,76,0.00,,,0.00,Wunderground v.1.15,2013-04-18 14:06:00,
2013-04-18 10:12:00,79.6,71.4,30.02,ESE,103,8.0,9.0,76,0.00,,,0.00,Wunderground v.1.15,2013-04-18 14:12:00,
2013-04-18 10:18:00,79.8,71.6,30.02,ESE,117,8.0,11.0,76,0.00,,,0.00,Wunderground v.1.15,2013-04-18 14:18:00,
2013-04-18 10:24:00,79.5,71.3,30.02,East,93,9.0,12.0,76,0.00,,,0.00,Wunderground v.1.15,2013-04-18 14:24:00,
2013-04-18 10:30:00,79.5,71.3,30.02,ESE,116,8.0,8.0,76,0.00,,,0.00,Wunderground v.1.15,2013-04-18 14:30:00,
2013-04-18 10:38:00,79.6,71.0,30.02,East,84,8.0,10.0,75,0.00,,,0.00,Wunderground v.1.15,2013-04-18 14:38:00,
2013-04-18 10:44:00,80.0,71.4,30.02,SE,132,8.0,8.0,75,0.00,,,0.00,Wunderground v.1.15,2013-04-18 14:44:00,
2013-04-18 10:50:00,80.5,71.8,30.02,SSE,148,7.0,10.0,75,0.00,,,0.00,Wunderground v.1.15,2013-04-18 14:50:00,
2013-04-18 10:56:00,80.7,71.2,30.02,ESE,111,8.0,10.0,73,0.00,,,0.00,Wunderground v.1.15,2013-04-18 14:56:00,
2013-04-18 11:02:00,81.1,71.2,30.02,SE,125,7.0,10.0,72,0.00,,,0.00,Wunderground v.1.15,2013-04-18 15:02:00,
2013-04-18 11:08:00,81.3,71.4,30.01,East,96,8.0,10.0,72,0.00,,,0.00,Wunderground v.1.15,2013-04-18 15:08:00,
2013-04-18 11:14:00,81.6,71.3,30.01,SSE,157,8.0,9.0,71,0.00,,,0.00,Wunderground v.1.15,2013-04-18 15:14:00,
2013-04-18 11:20:00,81.5,71.2,30.01,East,96,8.0,8.0,71,0.00,,,0.00,Wunderground v.1.15,2013-04-18 15:20:00,
2013-04-18 11:26:00,81.2,71.3,30.01,ESE,113,10.0,12.0,72,0.00,,,0.00,Wunderground v.1.15,2013-04-18 15:26:00,
2013-04-18 11:32:00,81.1,71.6,30.01,ESE,118,11.0,11.0,73,0.00,,,0.00,Wunderground v.1.15,2013-04-18 15:32:00,
2013-04-18 11:38:00,81.4,71.5,30.00,ESE,120,9.0,11.0,72,0.00,,,0.00,Wunderground v.1.15,2013-04-18 15:38:00,
2013-04-18 11:44:00,81.6,71.7,30.00,East,101,9.0,9.0,72,0.00,,,0.00,Wunderground v.1.15,2013-04-18 15:44:00,
2013-04-18 11:50:00,81.8,71.1,30.00,SE,139,8.0,9.0,70,0.00,,,0.00,Wunderground v.1.15,2013-04-18 15:50:00,
2013-04-18 11:56:00,81.6,71.7,30.00,SSE,149,10.0,10.0,72,0.00,,,0.00,Wunderground v.1.15,2013-04-18 15:56:00,
2013-04-18 12:02:00,81.7,71.8,30.00,SSE,155,9.0,10.0,72,0.00,,,0.00,Wunderground v.1.15,2013-04-18 16:02:00,
2013-04-18 12:08:00,81.6,71.3,30.00,ESE,106,9.0,14.0,71,0.00,,,0.00,Wunderground v.1.15,2013-04-18 16:08:00,
2013-04-18 12:14:00,81.8,71.5,30.00,South,180,8.0,10.0,71,0.00,,,0.00,Wunderground v.1.15,2013-04-18 16:14:00,
2013-04-18 12:20:00,82.2,71.4,30.00,SSE,159,7.0,12.0,70,0.00,,,0.00,Wunderground v.1.15,2013-04-18 16:20:00,
2013-04-18 12:28:00,82.2,71.9,30.00,SE,145,8.0,12.0,71,0.00,,,0.00,Wunderground v.1.15,2013-04-18 16:28:00,
2013-04-18 12:34:00,81.9,71.6,30.00,SSE,153,8.0,13.0,71,0.00,,,0.00,Wunderground v.1.15,2013-04-18 16:34:00,
2013-04-18 12:40:00,82.2,71.9,30.00,SE,146,7.0,7.0,71,0.00,,,0.00,Wunderground v.1.15,2013-04-18 16:40:00,
2013-04-18 12:46:00,82.6,72.2,30.00,SSE,152,5.0,7.0,71,0.00,,,0.00,Wunderground v.1.15,2013-04-18 16:46:00,
2013-04-18 12:52:00,82.8,72.0,29.99,SSE,167,6.0,8.0,70,0.00,,,0.00,Wunderground v.1.15,2013-04-18 16:52:00,
2013-04-18 12:58:00,83.1,72.7,29.99,SE,142,6.0,8.0,71,0.00,,,0.00,Wunderground v.1.15,2013-04-18 16:58:00,
2013-04-18 13:04:00,83.5,72.3,30.00,SSW,197,5.0,10.0,69,0.00,,,0.00,Wunderground v.1.15,2013-04-18 17:04:00,
2013-04-18 13:10:00,83.3,72.5,30.00,South,174,6.0,13.0,70,0.00,,,0.00,Wunderground v.1.15,2013-04-18 17:10:00,
2013-04-18 13:16:00,82.7,71.5,30.00,SE,146,7.0,13.0,69,0.00,,,0.00,Wunderground v.1.15,2013-04-18 17:16:00,
2013-04-18 13:22:00,82.8,72.0,30.00,SSE,167,8.0,8.0,70,0.00,,,0.00,Wunderground v.1.15,2013-04-18 17:22:00,
2013-04-18 13:28:00,82.8,72.0,29.99,South,191,8.0,10.0,70,0.00,,,0.00,Wunderground v.1.15,2013-04-18 17:28:00,
2013-04-18 13:34:00,82.8,72.0,29.99,South,169,8.0,11.0,70,0.00,,,0.00,Wunderground v.1.15,2013-04-18 17:34:00,
2013-04-18 13:40:00,83.0,72.6,29.99,SSE,162,8.0,8.0,71,0.00,,,0.00,Wunderground v.1.15,2013-04-18 17:40:00,
2013-04-18 13:46:00,83.2,72.4,29.99,SSE,166,7.0,10.0,70,0.00,,,0.00,Wunderground v.1.15,2013-04-18 17:46:00,
2013-04-18 13:52:00,83.7,72.9,29.99,SSE,167,7.0,11.0,70,0.00,,,0.00,Wunderground v.1.15,2013-04-18 17:52:00,
2013-04-18 13:58:00,83.3,72.9,29.99,SE,139,9.0,13.0,71,0.00,,,0.00,Wunderground v.1.15,2013-04-18 17:58:00,
2013-04-18 14:04:00,83.2,72.8,29.99,South,175,10.0,14.0,71,0.00,,,0.00,Wunderground v.1.15,2013-04-18 18:04:00,
2013-04-18 14:10:00,83.0,73.0,29.98,South,184,9.0,9.0,72,0.00,,,0.00,Wunderground v.1.15,2013-04-18 18:10:00,
2013-04-18 14:16:00,83.3,73.3,29.98,South,173,9.0,10.0,72,0.00,,,0.00,Wunderground v.1.15,2013-04-18 18:16:00,
2013-04-18 14:22:00,83.4,73.8,29.98,South,177,9.0,13.0,73,0.00,,,0.00,Wunderground v.1.15,2013-04-18 18:22:00,
2013-04-18 14:28:00,83.2,73.6,29.98,SSE,155,9.0,13.0,73,0.00,,,0.00,Wunderground v.1.15,2013-04-18 18:28:00,
2013-04-18 14:34:00,83.7,74.1,29.98,South,177,9.0,11.0,73,0.00,,,0.00,Wunderground v.1.15,2013-04-18 18:34:00,
2013-04-18 14:40:00,83.9,74.3,29.98,South,178,8.0,8.0,73,0.00,,,0.00,Wunderground v.1.15,2013-04-18 18:40:00,
2013-04-18 14:46:00,83.5,73.9,29.98,SSE,165,9.0,12.0,73,0.00,,,0.00,Wunderground v.1.15,2013-04-18 18:46:00,
2013-04-18 14:52:00,83.4,73.8,29.97,SSE,161,11.0,14.0,73,0.00,,,0.00,Wunderground v.1.15,2013-04-18 18:52:00,
2013-04-18 14:58:00,84.1,74.5,29.97,SSW,194,9.0,14.0,73,0.00,,,0.00,Wunderground v.1.15,2013-04-18 18:58:00,
2013-04-18 15:04:00,84.2,75.0,29.97,SSE,165,8.0,15.0,74,0.00,,,0.00,Wunderground v.1.15,2013-04-18 19:04:00,
2013-04-18 15:10:00,83.9,74.7,29.96,SSE,159,9.0,12.0,74,0.00,,,0.00,Wunderground v.1.15,2013-04-18 19:10:00,
2013-04-18 15:16:00,83.4,74.2,29.96,South,175,10.0,12.0,74,0.00,,,0.00,Wunderground v.1.15,2013-04-18 19:16:00,
2013-04-18 15:22:00,83.2,74.4,29.96,SSW,200,9.0,12.0,75,0.00,,,0.00,Wunderground v.1.15,2013-04-18 19:22:00,
2013-04-18 15:28:00,83.3,74.5,29.96,South,179,9.0,12.0,75,0.00,,,0.00,Wunderground v.1.15,2013-04-18 19:28:00,
2013-04-18 15:34:00,83.0,74.3,29.96,South,181,9.0,14.0,75,0.00,,,0.00,Wunderground v.1.15,2013-04-18 19:34:00,
2013-04-18 15:40:00,82.7,74.0,29.96,SSW,202,9.0,10.0,75,0.00,,,0.00,Wunderground v.1.15,2013-04-18 19:40:00,
2013-04-18 15:46:00,82.9,74.6,29.95,South,181,8.0,10.0,76,0.00,,,0.00,Wunderground v.1.15,2013-04-18 19:46:00,
2013-04-18 15:52:00,83.0,74.3,29.95,SSW,198,8.0,13.0,75,0.00,,,0.00,Wunderground v.1.15,2013-04-18 19:52:00,
2013-04-18 15:58:00,82.5,74.2,29.94,South,185,9.0,13.0,76,0.00,,,0.00,Wunderground v.1.15,2013-04-18 19:58:00,
2013-04-18 16:04:00,82.6,74.3,29.95,SSW,194,10.0,18.0,76,0.00,,,0.00,Wunderground v.1.15,2013-04-18 20:04:00,
2013-04-18 16:10:00,82.6,74.3,29.95,South,180,11.0,11.0,76,0.00,,,0.00,Wunderground v.1.15,2013-04-18 20:10:00,
2013-04-18 16:16:00,82.8,74.5,29.95,South,185,12.0,15.0,76,0.00,,,0.00,Wunderground v.1.15,2013-04-18 20:16:00,
2013-04-18 16:22:00,83.3,74.9,29.95,South,174,10.0,10.0,76,0.00,,,0.00,Wunderground v.1.15,2013-04-18 20:22:00,
2013-04-18 16:28:00,83.5,74.7,29.95,South,175,9.0,15.0,75,0.00,,,0.00,Wunderground v.1.15,2013-04-18 20:28:00,
2013-04-18 16:34:00,83.3,74.5,29.95,SSW,198,10.0,11.0,75,0.00,,,0.00,Wunderground v.1.15,2013-04-18 20:34:00,
2013-04-18 16:40:00,83.0,74.6,29.95,SSW,195,10.0,11.0,76,0.00,,,0.00,Wunderground v.1.15,2013-04-18 20:40:00,
2013-04-18 16:46:00,82.5,74.2,29.95,SSW,201,10.0,15.0,76,0.00,,,0.00,Wunderground v.1.15,2013-04-18 20:46:00,
2013-04-18 16:52:00,82.5,74.2,29.94,South,180,10.0,10.0,76,0.00,,,0.00,Wunderground v.1.15,2013-04-18 20:52:00,
2013-04-18 16:58:00,82.3,74.0,29.95,South,174,9.0,10.0,76,0.00,,,0.00,Wunderground v.1.15,2013-04-18 20:58:00,
2013-04-18 17:04:00,82.6,74.3,29.94,SSW,194,6.0,8.0,76,0.00,,,0.00,Wunderground v.1.15,2013-04-18 21:04:00,
2013-04-18 17:10:00,82.4,74.1,29.94,SSW,200,4.0,11.0,76,0.00,,,0.00,Wunderground v.1.15,2013-04-18 21:10:00,
2013-04-18 17:16:00,82.3,74.4,29.94,South,175,8.0,11.0,77,0.00,,,0.00,Wunderground v.1.15,2013-04-18 21:16:00,
2013-04-18 17:22:00,82.1,74.2,29.94,South,189,9.0,12.0,77,0.00,,,0.00,Wunderground v.1.15,2013-04-18 21:22:00,
2013-04-18 17:28:00,81.9,74.0,29.94,South,190,9.0,12.0,77,0.00,,,0.00,Wunderground v.1.15,2013-04-18 21:28:00,
2013-04-18 17:34:00,82.1,74.2,29.94,SSE,159,9.0,12.0,77,0.00,,,0.00,Wunderground v.1.15,2013-04-18 21:34:00,
2013-04-18 17:40:00,82.2,73.9,29.94,SSW,194,8.0,10.0,76,0.00,,,0.00,Wunderground v.1.15,2013-04-18 21:40:00,
2013-04-18 17:46:00,81.7,73.8,29.94,South,180,9.0,10.0,77,0.00,,,0.00,Wunderground v.1.15,2013-04-18 21:46:00,
2013-04-18 17:52:00,81.4,73.5,29.94,South,182,8.0,9.0,77,0.00,,,0.00,Wunderground v.1.15,2013-04-18 21:52:00,
2013-04-18 17:58:00,81.6,73.7,29.94,South,173,7.0,9.0,77,0.00,,,0.00,Wunderground v.1.15,2013-04-18 21:58:00,
2013-04-18 18:04:00,81.6,73.7,29.94,SSW,192,7.0,7.0,77,0.00,,,0.00,Wunderground v.1.15,2013-04-18 22:04:00,
2013-04-18 18:10:00,81.0,73.1,29.94,South,190,8.0,8.0,77,0.00,,,0.00,Wunderground v.1.15,2013-04-18 22:10:00,
2013-04-18 18:16:00,81.0,73.1,29.94,South,176,8.0,8.0,77,0.00,,,0.00,Wunderground v.1.15,2013-04-18 22:16:00,
2013-04-18 18:22:00,80.9,73.0,29.94,South,184,8.0,10.0,77,0.00,,,0.00,Wunderground v.1.15,2013-04-18 22:22:00,
2013-04-18 18:28:00,81.0,73.1,29.94,South,185,7.0,10.0,77,0.00,,,0.00,Wunderground v.1.15,2013-04-18 22:28:00,
2013-04-18 18:34:00,81.0,73.1,29.94,South,172,7.0,10.0,77,0.00,,,0.00,Wunderground v.1.15,2013-04-18 22:34:00,
2013-04-18 18:40:00,80.7,73.2,29.94,South,183,8.0,8.0,78,0.00,,,0.00,Wunderground v.1.15,2013-04-18 22:40:00,
2013-04-18 18:46:00,80.7,73.2,29.94,South,186,7.0,12.0,78,0.00,,,0.00,Wunderground v.1.15,2013-04-18 22:46:00,
2013-04-18 18:52:00,80.7,73.2,29.94,SSE,168,7.0,7.0,78,0.00,,,0.00,Wunderground v.1.15,2013-04-18 22:52:00,
2013-04-18 18:58:00,80.5,73.0,29.94,South,176,7.0,10.0,78,0.00,,,0.00,Wunderground v.1.15,2013-04-18 22:58:00,
2013-04-18 19:04:00,80.3,72.8,29.94,South,190,7.0,7.0,78,0.00,,,0.00,Wunderground v.1.15,2013-04-18 23:04:00,
2013-04-18 19:10:00,80.1,72.6,29.95,South,171,6.0,7.0,78,0.00,,,0.00,Wunderground v.1.15,2013-04-18 23:10:00,
2013-04-18 19:16:00,79.9,72.4,29.95,South,172,7.0,7.0,78,0.00,,,0.00,Wunderground v.1.15,2013-04-18 23:16:00,
2013-04-18 19:22:00,79.7,72.2,29.95,South,178,6.0,7.0,78,0.00,,,0.00,Wunderground v.1.15,2013-04-18 23:22:00,
2013-04-18 19:28:00,79.4,71.9,29.95,South,176,7.0,7.0,78,0.00,,,0.00,Wunderground v.1.15,2013-04-18 23:28:00,
2013-04-18 19:34:00,79.2,71.7,29.95,SSE,161,7.0,12.0,78,0.00,,,0.00,Wunderground v.1.15,2013-04-18 23:34:00,
2013-04-18 19:40:00,79.1,71.6,29.95,South,178,7.0,7.0,78,0.00,,,0.00,Wunderground v.1.15,2013-04-18 23:40:00,
2013-04-18 19:46:00,78.9,71.5,29.95,South,176,7.0,8.0,78,0.00,,,0.00,Wunderground v.1.15,2013-04-18 23:46:00,
2013-04-18 19:52:00,78.7,71.3,29.95,South,178,6.0,6.0,78,0.00,,,0.00,Wunderground v.1.15,2013-04-18 23:52:00,
2013-04-18 19:58:00,78.6,71.2,29.95,South,179,6.0,6.0,78,0.00,,,0.00,Wunderground v.1.15,2013-04-18 23:58:00,
2013-04-18 20:04:00,78.4,71.0,29.95,South,174,5.0,8.0,78,0.00,,,0.00,Wunderground v.1.15,2013-04-19 00:04:00,
2013-04-18 20:10:00,78.2,70.8,29.95,South,171,6.0,8.0,78,0.00,,,0.00,Wunderground v.1.15,2013-04-19 00:10:00,
2013-04-18 20:16:00,78.2,70.8,29.96,South,172,6.0,8.0,78,0.00,,,0.00,Wunderground v.1.15,2013-04-19 00:16:00,
2013-04-18 20:22:00,78.1,70.7,29.96,South,174,6.0,6.0,78,0.00,,,0.00,Wunderground v.1.15,2013-04-19 00:22:00,
2013-04-18 20:28:00,78.0,70.6,29.95,South,176,6.0,6.0,78,0.00,,,0.00,Wunderground v.1.15,2013-04-19 00:28:00,
2013-04-18 20:34:00,78.0,70.6,29.95,South,173,7.0,12.0,78,0.00,,,0.00,Wunderground v.1.15,2013-04-19 00:34:00,
2013-04-18 20:40:00,78.0,70.6,29.96,South,175,7.0,7.0,78,0.00,,,0.00,Wunderground v.1.15,2013-04-19 00:40:00,
2013-04-18 20:46:00,78.0,70.6,29.96,South,171,5.0,7.0,78,0.00,,,0.00,Wunderground v.1.15,2013-04-19 00:46:00,
2013-04-18 20:52:00,78.0,70.6,29.96,South,172,6.0,6.0,78,0.00,,,0.00,Wunderground v.1.15,2013-04-19 00:52:00,
2013-04-18 20:58:00,78.0,70.6,29.97,SSE,161,6.0,7.0,78,0.00,,,0.00,Wunderground v.1.15,2013-04-19 00:58:00,
2013-04-18 21:04:00,78.0,70.6,29.97,South,169,7.0,9.0,78,0.00,,,0.00,Wunderground v.1.15,2013-04-19 01:04:00,
2013-04-18 21:10:00,78.0,70.6,29.97,South,172,5.0,5.0,78,0.00,,,0.00,Wunderground v.1.15,2013-04-19 01:10:00,
2013-04-18 21:16:00,78.0,70.6,29.97,South,169,4.0,7.0,78,0.00,,,0.00,Wunderground v.1.15,2013-04-19 01:16:00,
2013-04-18 21:22:00,78.0,70.6,29.97,SSE,165,5.0,9.0,78,0.00,,,0.00,Wunderground v.1.15,2013-04-19 01:22:00,
2013-04-18 21:28:00,78.0,70.6,29.97,South,171,6.0,9.0,78,0.00,,,0.00,Wunderground v.1.15,2013-04-19 01:28:00,
2013-04-18 21:34:00,78.0,70.6,29.97,South,172,6.0,7.0,78,0.00,,,0.00,Wunderground v.1.15,2013-04-19 01:34:00,
2013-04-18 21:40:00,78.0,70.6,29.97,SSE,166,6.0,6.0,78,0.00,,,0.00,Wunderground v.1.15,2013-04-19 01:40:00,
2013-04-18 21:46:00,78.0,70.6,29.97,SSE,167,6.0,6.0,78,0.00,,,0.00,Wunderground v.1.15,2013-04-19 01:46:00,
2013-04-18 21:52:00,78.0,70.6,29.98,South,173,6.0,8.0,78,0.00,,,0.00,Wunderground v.1.15,2013-04-19 01:52:00,
2013-04-18 21:58:00,78.1,70.7,29.98,SSE,165,7.0,8.0,78,0.00,,,0.00,Wunderground v.1.15,2013-04-19 01:58:00,
2013-04-18 22:04:00,78.2,70.8,29.98,South,171,7.0,12.0,78,0.00,,,0.00,Wunderground v.1.15,2013-04-19 02:04:00,
2013-04-18 22:10:00,78.3,70.9,29.98,South,177,7.0,11.0,78,0.00,,,0.00,Wunderground v.1.15,2013-04-19 02:10:00,
2013-04-18 22:16:00,78.4,71.0,29.98,SSE,163,7.0,11.0,78,0.00,,,0.00,Wunderground v.1.15,2013-04-19 02:16:00,
2013-04-18 22:22:00,78.4,71.0,29.98,SSE,161,7.0,9.0,78,0.00,,,0.00,Wunderground v.1.15,2013-04-19 02:22:00,
2013-04-18 22:28:00,78.4,71.0,29.99,SSE,161,7.0,11.0,78,0.00,,,0.00,Wunderground v.1.15,2013-04-19 02:28:00,
2013-04-18 22:34:00,78.4,71.0,29.99,SSE,162,7.0,8.0,78,0.00,,,0.00,Wunderground v.1.15,2013-04-19 02:34:00,
2013-04-18 22:40:00,78.4,71.0,29.99,SSE,148,6.0,6.0,78,0.00,,,0.00,Wunderground v.1.15,2013-04-19 02:40:00,
2013-04-18 22:46:00,78.4,71.0,29.99,SE,146,6.0,8.0,78,0.00,,,0.00,Wunderground v.1.15,2013-04-19 02:46:00,
2013-04-18 22:52:00,78.4,71.0,29.99,SE,134,6.0,8.0,78,0.00,,,0.00,Wunderground v.1.15,2013-04-19 02:52:00,
2013-04-18 22:58:00,78.4,71.3,29.98,SE,135,6.0,8.0,79,0.00,,,0.00,Wunderground v.1.15,2013-04-19 02:58:00,
2013-04-18 23:04:00,78.4,71.3,29.99,SE,128,6.0,9.0,79,0.00,,,0.00,Wunderground v.1.15,2013-04-19 03:04:00,
2013-04-18 23:10:00,78.2,70.8,29.98,ESE,123,6.0,8.0,78,0.00,,,0.00,Wunderground v.1.15,2013-04-19 03:10:00,
2013-04-18 23:16:00,78.3,70.9,29.98,ESE,122,6.0,8.0,78,0.00,,,0.00,Wunderground v.1.15,2013-04-19 03:16:00,
2013-04-18 23:22:00,78.5,71.1,29.98,ESE,115,6.0,6.0,78,0.00,,,0.00,Wunderground v.1.15,2013-04-19 03:22:00,
2013-04-18 23:28:00,78.7,71.3,29.98,SE,125,6.0,10.0,78,0.00,,,0.00,Wunderground v.1.15,2013-04-19 03:28:00,
2013-04-18 23:34:00,78.9,71.5,29.99,SE,130,8.0,8.0,78,0.00,,,0.00,Wunderground v.1.15,2013-04-19 03:34:00,
2013-04-18 23:40:00,78.9,71.5,29.99,SE,125,6.0,6.0,78,0.00,,,0.00,Wunderground v.1.15,2013-04-19 03:40:00,
2013-04-18 23:46:00,78.8,71.4,29.99,ESE,112,6.0,14.0,78,0.00,,,0.00,Wunderground v.1.15,2013-04-19 03:46:00,
2013-04-18 23:52:00,78.7,71.3,29.99,ESE,120,6.0,7.0,78,0.00,,,0.00,Wunderground v.1.15,2013-04-19 03:52:00,
2013-04-18 23:58:00,78.5,71.1,29.99,ESE,112,6.0,8.0,78,0.00,,,0.00,Wunderground v.1.15,2013-04-19 03:58:00,